Indian Mills, New Jersey
Current Conditions -  °F | °C
As of 10:54 PM on Sunday 25 Jan 2015 (Local Time) from KVAY Reporting Station
Light Snow Light Snow  
Wind Chill: 27°   Ceiling: 2600
Heat Index: 35°   Visibility: 10mi
Dew Point: 20°   Wind: 10mph
Humidity: 54%   Direction: 60°ENE
Pressure: 29.96"   Gusts: NA
Location:  39.7955°N, 74.6301°W
Report Text: KVAY 260354Z AUTO 06009KT 10SM -SN OVC026 02/M07 A2996 RMK AO2 SNB53 SLP145 P0000 T00171067
Loading
Personal Weather Stations






























Interactive Weather Map New forecast layout! Learn more

10-Day Weather Forecast

Advertisements
Track Severe Weather on mobile